Time;durP1;ratioP1;P1;durP2;ratioP2;P2;SDS_P1;SDS_P2;PMS_P1;PMS_P2;Temp;Humidity;BMP_temperature;BMP_pressure;BME280_temperature;BME280_humidity;BME280_pressure;Samples;Min_cycle;Max_cycle;Signal;HPM_P1;HPM_P2
2023/05/31 00:01:33;;;;;;;14.88;3.90;;;;;;;11.38;100.00;102840.72;5020359;28;20053;-73
2023/05/31 00:04:00;;;;;;;10.63;3.95;;;;;;;11.34;100.00;102845.00;4984579;28;20426;-74
2023/05/31 00:06:28;;;;;;;9.32;4.10;;;;;;;11.30;100.00;102849.31;5005276;28;20054;-73
2023/05/31 00:08:55;;;;;;;7.90;4.60;;;;;;;11.27;100.00;102836.00;5017058;28;20515;-73
2023/05/31 00:11:22;;;;;;;11.10;5.20;;;;;;;11.25;100.00;102835.06;5010120;28;20531;-73
2023/05/31 00:13:50;;;;;;;11.20;4.97;;;;;;;11.23;100.00;102838.50;5005663;28;20037;-73
2023/05/31 00:16:18;;;;;;;11.25;5.38;;;;;;;11.20;100.00;102836.66;5006094;28;20045;-73
2023/05/31 00:19:05;;;;;;;14.43;5.25;;;;;;;11.14;100.00;102832.94;5005781;28;20053;-73
2023/05/31 00:21:33;;;;;;;13.30;4.75;;;;;;;11.11;100.00;102841.63;5024377;28;20106;-73
2023/05/31 00:24:00;;;;;;;7.45;4.88;;;;;;;11.09;100.00;102833.66;5025124;28;20044;-73
2023/05/31 00:26:27;;;;;;;10.02;4.75;;;;;;;11.07;100.00;102834.47;5026748;28;20048;-75
2023/05/31 00:28:55;;;;;;;11.35;4.60;;;;;;;11.03;100.00;102825.53;5039598;28;20049;-75
2023/05/31 00:31:22;;;;;;;11.63;4.90;;;;;;;11.01;100.00;102823.72;5025518;28;20049;-75
2023/05/31 00:33:49;;;;;;;10.25;4.40;;;;;;;10.99;100.00;102828.06;4986411;28;20046;-74
2023/05/31 00:36:17;;;;;;;8.32;4.03;;;;;;;10.97;100.00;102824.47;5005859;28;20491;-74
2023/05/31 00:38:44;;;;;;;11.90;5.45;;;;;;;10.95;100.00;102829.69;5019071;28;20410;-74
2023/05/31 00:41:11;;;;;;;12.63;4.95;;;;;;;10.93;100.00;102829.63;5005661;28;20057;-74
2023/05/31 00:43:39;;;;;;;8.20;4.63;;;;;;;10.91;100.00;102823.41;5025699;28;20045;-74
2023/05/31 00:46:17;;;;;;;13.57;4.72;;;;;;;10.91;100.00;102826.03;5017280;28;20060;-74
2023/05/31 00:48:45;;;;;;;12.65;5.32;;;;;;;10.89;100.00;102826.84;5038740;28;20041;-74
2023/05/31 00:51:12;;;;;;;8.30;4.63;;;;;;;10.86;100.00;102821.47;4972668;28;20080;-74
2023/05/31 00:53:40;;;;;;;17.02;5.60;;;;;;;10.83;100.00;102827.53;5020550;28;20041;-74
2023/05/31 00:56:07;;;;;;;18.60;5.15;;;;;;;10.82;100.00;102828.38;5008609;28;20057;-74
2023/05/31 00:58:36;;;;;;;10.38;4.07;;;;;;;10.82;100.00;102828.38;5024532;28;20418;-74
2023/05/31 01:01:04;;;;;;;13.10;5.22;;;;;;;10.81;100.00;102823.97;5024579;28;20052;-74
2023/05/31 01:03:32;;;;;;;10.50;4.68;;;;;;;10.80;100.00;102824.78;5042420;28;20045;-74
2023/05/31 01:06:00;;;;;;;10.43;5.60;;;;;;;10.81;100.00;102817.75;4958579;28;20042;-73
2023/05/31 01:08:28;;;;;;;9.70;4.63;;;;;;;10.79;100.00;102815.06;5022241;28;20415;-73
2023/05/31 01:11:07;;;;;;;9.82;4.85;;;;;;;10.79;100.00;102814.19;5056595;28;20056;-73
2023/05/31 01:13:58;;;;;;;10.82;4.25;;;;;;;10.77;100.00;102821.16;5018415;28;20053;-73
2023/05/31 01:16:35;;;;;;;12.25;4.85;;;;;;;10.74;100.00;102811.41;5024958;28;20426;-73
2023/05/31 01:19:07;;;;;;;15.13;5.80;;;;;;;10.73;100.00;102817.50;5039867;28;20491;-73
2023/05/31 01:21:52;;;;;;;14.50;5.75;;;;;;;10.74;100.00;102819.31;4987457;28;20048;-73
2023/05/31 01:24:44;;;;;;;10.43;5.28;;;;;;;10.69;100.00;102820.88;5025485;28;20414;-73
2023/05/31 01:27:14;;;;;;;14.50;5.53;;;;;;;10.70;100.00;102825.34;5026462;28;20050;-73
2023/05/31 01:29:44;;;;;;;11.07;4.85;;;;;;;10.68;100.00;102821.72;5022211;28;20048;-73
2023/05/31 01:32:14;;;;;;;14.63;5.70;;;;;;;10.67;100.00;102825.22;5041525;28;20434;-73
2023/05/31 01:34:45;;;;;;;9.53;4.90;;;;;;;10.65;100.00;102829.53;5006253;28;20057;-73
2023/05/31 01:37:12;;;;;;;11.32;5.32;;;;;;;10.64;100.00;102833.00;5017777;28;20052;-73
2023/05/31 01:39:40;;;;;;;14.18;5.63;;;;;;;10.63;100.00;102836.50;4994059;28;20061;-73
2023/05/31 01:42:09;;;;;;;13.73;5.82;;;;;;;10.61;100.00;102830.28;5021672;28;20054;-75
2023/05/31 01:44:40;;;;;;;6.57;4.80;;;;;;;10.59;100.00;102838.13;5010435;28;20574;-75
2023/05/31 01:47:09;;;;;;;15.23;5.22;;;;;;;10.57;100.00;102831.00;5024832;28;20292;-75
2023/05/31 01:49:38;;;;;;;11.98;5.03;;;;;;;10.54;100.00;102831.78;5040576;28;20050;-75
2023/05/31 01:52:09;;;;;;;14.05;5.78;;;;;;;10.52;100.00;102831.72;5024865;28;20116;-75
2023/05/31 01:54:37;;;;;;;15.73;5.95;;;;;;;10.54;100.00;102827.41;4987808;28;20045;-75
2023/05/31 01:57:07;;;;;;;9.27;5.20;;;;;;;10.56;100.00;102829.22;5004617;28;20057;-73
2023/05/31 01:59:39;;;;;;;13.60;5.78;;;;;;;10.55;100.00;102828.34;5017146;28;20076;-73
2023/05/31 02:02:08;;;;;;;15.95;6.78;;;;;;;10.56;100.00;102831.84;5025277;28;20056;-74
2023/05/31 02:04:35;;;;;;;12.25;5.88;;;;;;;10.57;100.00;102823.09;5023373;28;20049;-73
2023/05/31 02:07:03;;;;;;;15.93;7.20;;;;;;;10.58;100.00;102832.81;5003773;28;20415;-73
2023/05/31 02:09:30;;;;;;;14.93;6.43;;;;;;;10.58;100.00;102836.31;4972535;28;20057;-73
2023/05/31 02:11:58;;;;;;;11.32;6.65;;;;;;;10.58;100.00;102830.16;5024797;28;20038;-75
2023/05/31 02:14:25;;;;;;;17.30;7.10;;;;;;;10.56;100.00;102831.84;5002784;28;20419;-73
2023/05/31 02:16:52;;;;;;;12.85;7.00;;;;;;;10.53;100.00;102823.00;5007350;28;20410;-73
2023/05/31 02:19:25;;;;;;;17.98;6.93;;;;;;;10.54;100.00;102829.16;5026301;28;20046;-75
2023/05/31 02:21:52;;;;;;;11.75;6.38;;;;;;;10.52;100.00;102826.47;5021605;28;20041;-74
2023/05/31 02:24:20;;;;;;;15.57;6.70;;;;;;;10.56;100.00;102842.41;4989063;28;20411;-75
2023/05/31 02:26:47;;;;;;;13.35;5.85;;;;;;;10.58;100.00;102835.44;5021824;28;20049;-75
2023/05/31 02:29:14;;;;;;;13.85;6.30;;;;;;;10.58;100.00;102840.72;5027246;28;20426;-75
2023/05/31 02:31:42;;;;;;;15.20;6.68;;;;;;;10.59;100.00;102837.25;5024886;28;20424;-75
2023/05/31 02:34:10;;;;;;;11.20;5.35;;;;;;;10.61;100.00;102832.91;5009342;28;20050;-74
2023/05/31 02:36:40;;;;;;;11.20;5.32;;;;;;;10.61;100.00;102830.28;5006533;28;20064;-75
2023/05/31 02:39:07;;;;;;;16.67;5.90;;;;;;;10.61;100.00;102838.19;4985680;28;20061;-75
2023/05/31 02:41:38;;;;;;;13.68;5.90;;;;;;;10.62;100.00;102834.69;4979969;28;20058;-75
2023/05/31 02:44:08;;;;;;;17.73;6.53;;;;;;;10.63;100.00;102837.38;5014998;28;20506;-73
2023/05/31 02:46:36;;;;;;;17.25;5.82;;;;;;;10.63;100.00;102834.75;5039735;28;20056;-73
2023/05/31 02:49:03;;;;;;;17.05;6.30;;;;;;;10.64;100.00;102831.28;5026617;28;20052;-73
2023/05/31 02:51:31;;;;;;;13.13;4.90;;;;;;;10.63;100.00;102825.97;5026773;28;20058;-74
2023/05/31 02:54:01;;;;;;;11.50;5.25;;;;;;;10.61;100.00;102832.91;5028161;28;20053;-73
2023/05/31 02:56:30;;;;;;;14.48;5.60;;;;;;;10.57;100.00;102834.56;4992482;28;20060;-75
2023/05/31 02:59:10;;;;;;;18.30;5.43;;;;;;;10.57;100.00;102838.91;5014787;28;20046;-74
2023/05/31 03:01:40;;;;;;;8.73;5.18;;;;;;;10.54;100.00;102831.78;5026330;28;20046;-73
2023/05/31 03:04:18;;;;;;;10.40;4.88;;;;;;;10.52;100.00;102839.66;5010093;28;20045;-73
2023/05/31 03:06:46;;;;;;;11.77;5.53;;;;;;;10.53;100.00;102836.19;5007443;28;20054;-73
2023/05/31 03:09:16;;;;;;;12.68;4.90;;;;;;;10.51;100.00;102835.22;5005135;28;20058;-73
2023/05/31 03:11:45;;;;;;;8.85;4.70;;;;;;;10.53;100.00;102825.63;4978546;28;20046;-73
2023/05/31 03:14:12;;;;;;;10.88;4.47;;;;;;;10.52;100.00;102833.47;5020130;28;20473;-73
2023/05/31 03:16:48;;;;;;;11.32;5.28;;;;;;;10.50;100.00;102835.16;5028239;28;20049;-73
2023/05/31 03:19:16;;;;;;;11.85;4.68;;;;;;;10.49;100.00;102833.38;5007654;28;20049;-73
2023/05/31 03:21:47;;;;;;;11.50;5.75;;;;;;;10.48;100.00;102829.84;5009809;28;20041;-73
2023/05/31 03:24:15;;;;;;;13.00;5.13;;;;;;;10.48;100.00;102829.84;5045131;28;20060;-73
2023/05/31 03:26:45;;;;;;;;;;;;;;;10.50;100.00;102833.41;4974710;28;20053;-73
2023/05/31 03:29:13;;;;;;;9.10;5.53;;;;;;;10.52;100.00;102831.72;5027946;28;19921;-73
2023/05/31 03:31:41;;;;;;;14.40;5.10;;;;;;;10.57;100.00;102829.28;5038336;28;20049;-73
2023/05/31 03:34:08;;;;;;;11.85;5.10;;;;;;;10.60;100.00;102834.63;4996913;28;20046;-73
2023/05/31 03:36:37;;;;;;;11.25;4.93;;;;;;;10.64;100.00;102835.66;5021964;28;20605;-73
2023/05/31 03:39:22;;;;;;;13.60;5.28;;;;;;;10.67;100.00;102844.56;5026988;28;20418;-73
2023/05/31 03:41:49;;;;;;;10.32;4.60;;;;;;;10.71;100.00;102833.28;4972861;28;20046;-73
2023/05/31 03:44:16;;;;;;;11.52;5.47;;;;;;;10.75;100.00;102839.53;5020134;28;20073;-73
2023/05/31 03:46:44;;;;;;;10.95;5.10;;;;;;;10.78;100.00;102852.84;5005367;28;20057;-73
2023/05/31 03:49:11;;;;;;;9.27;4.32;;;;;;;10.81;100.00;102844.13;5020981;28;20426;-73
2023/05/31 03:51:39;;;;;;;11.93;5.35;;;;;;;10.85;100.00;102839.03;5005319;28;20406;-73
2023/05/31 03:54:07;;;;;;;14.30;6.32;;;;;;;10.91;100.00;102836.59;4998497;28;20060;-73
2023/05/31 03:56:34;;;;;;;15.68;5.50;;;;;;;10.98;100.00;102839.44;5007759;28;20049;-73
2023/05/31 04:03:11;;;;;;;13.73;5.35;;;;;;;11.13;100.00;102837.28;4995954;28;20045;-73
2023/05/31 04:06:03;;;;;;;;;;;;;;;11.19;100.00;102836.59;5022572;28;20045;-73
2023/05/31 04:08:30;;;;;;;19.38;5.13;;;;;;;11.23;100.00;102836.75;5018003;28;19932;-73
2023/05/31 04:10:58;;;;;;;16.50;5.60;;;;;;;11.34;100.00;102837.09;5024378;28;20049;-74
2023/05/31 04:13:25;;;;;;;11.55;4.72;;;;;;;11.60;100.00;102844.94;4954630;28;20064;-73
2023/05/31 04:15:54;;;;;;;15.43;5.35;;;;;;;11.99;100.00;102841.75;5020941;28;20060;-74
2023/05/31 04:18:21;;;;;;;13.05;5.13;;;;;;;12.46;100.00;102840.44;5021647;28;20057;-74
2023/05/31 04:20:48;;;;;;;10.70;4.35;;;;;;;13.07;100.00;102832.28;5024915;28;20056;-74
2023/05/31 04:23:16;;;;;;;11.73;5.22;;;;;;;13.74;100.00;102835.66;4992493;28;20053;-74
2023/05/31 04:25:44;;;;;;;15.98;4.45;;;;;;;14.48;100.00;102834.50;5017240;28;20495;-74
2023/05/31 04:28:13;;;;;;;15.02;4.20;;;;;;;15.24;100.00;102830.50;4972681;28;20056;-74
2023/05/31 04:30:41;;;;;;;10.23;4.13;;;;;;;15.82;100.00;102823.34;5051295;28;20855;-74
2023/05/31 04:33:08;;;;;;;9.80;3.72;;;;;;;16.34;100.00;102820.44;5018097;28;20435;-75
2023/05/31 04:35:36;;;;;;;7.15;3.25;;;;;;;16.99;100.00;102823.72;5048702;28;20049;-75
2023/05/31 04:38:04;;;;;;;9.98;3.67;;;;;;;17.66;100.00;102831.28;5017925;28;20504;-74
2023/05/31 04:40:32;;;;;;;9.73;2.83;;;;;;;18.24;100.00;102814.63;5019212;28;20045;-74
2023/05/31 04:43:00;;;;;;;12.07;3.00;;;;;;;18.77;100.00;102823.59;5021925;28;20068;-75
2023/05/31 04:45:32;;;;;;;8.18;3.17;;;;;;;19.21;100.00;102814.72;4998573;28;20056;-74
2023/05/31 04:48:01;;;;;;;9.10;3.05;;;;;;;19.62;100.00;102817.31;5013985;28;20041;-75
2023/05/31 04:50:29;;;;;;;9.05;3.25;;;;;;;19.96;100.00;102818.97;5021938;28;20046;-74
2023/05/31 04:52:58;;;;;;;4.93;2.47;;;;;;;20.27;100.00;102822.38;5023552;28;20507;-74
2023/05/31 04:55:26;;;;;;;7.30;2.47;;;;;;;20.56;100.00;102824.84;4996932;28;20045;-74
2023/05/31 04:57:57;;;;;;;9.77;2.83;;;;;;;20.84;100.00;102824.69;5031270;28;20061;-74
2023/05/31 05:00:25;;;;;;;9.98;2.78;;;;;;;21.10;100.00;102826.25;4965509;28;20050;-74
2023/05/31 05:03:01;;;;;;;5.55;2.83;;;;;;;21.20;100.00;102835.97;5027212;28;20050;-74
2023/05/31 05:05:29;;;;;;;5.50;2.20;;;;;;;21.37;100.00;102827.75;5032989;28;20041;-74
2023/05/31 05:07:56;;;;;;;8.27;2.80;;;;;;;21.53;100.00;102834.78;4983086;28;20045;-74
2023/05/31 05:10:24;;;;;;;4.45;2.33;;;;;;;21.62;100.00;102836.44;5006350;28;20061;-74
2023/05/31 05:12:52;;;;;;;3.88;1.67;;;;;;;21.67;100.00;102828.38;5020324;28;20057;-74
2023/05/31 05:15:19;;;;;;;4.68;1.67;;;;;;;21.84;100.00;102826.34;4968898;28;20813;-73
2023/05/31 05:17:47;;;;;;;4.15;1.77;;;;;;;22.07;100.00;102827.84;5036856;28;20060;-73
2023/05/31 05:20:15;;;;;;;3.30;1.65;;;;;;;22.24;100.00;102831.19;5008496;28;20088;-74
2023/05/31 05:22:51;;;;;;;5.10;1.70;;;;;;;22.47;100.00;102836.25;5034966;28;20053;-74
2023/05/31 05:25:20;;;;;;;4.65;1.95;;;;;;;22.75;100.00;102833.13;5010403;28;20054;-74
2023/05/31 05:27:48;;;;;;;2.50;1.45;;;;;;;22.85;100.00;102820.41;4994222;28;20049;-74
2023/05/31 05:30:16;;;;;;;6.63;1.52;;;;;;;22.84;100.00;102830.28;4960229;28;20053;-74
2023/05/31 05:32:44;;;;;;;1.70;1.00;;;;;;;22.71;100.00;102834.09;5023050;28;20054;-74
2023/05/31 05:35:12;;;;;;;6.30;1.35;;;;;;;22.23;99.91;102834.78;5028585;28;20054;-73
2023/05/31 05:37:39;;;;;;;4.93;1.00;;;;;;;21.93;99.73;102836.09;5020785;28;20065;-74
2023/05/31 05:40:07;;;;;;;2.42;0.85;;;;;;;21.51;99.11;102833.91;5010053;28;20050;-74
2023/05/31 05:42:38;;;;;;;2.47;0.98;;;;;;;21.10;100.00;102839.66;5032196;28;20087;-74
2023/05/31 05:45:07;;;;;;;4.60;0.90;;;;;;;21.03;100.00;102834.34;4999964;28;20041;-78
2023/05/31 05:47:36;;;;;;;;;;;;;;;21.23;97.37;102844.00;4960141;28;20041;-75
2023/05/31 05:50:05;;;;;;;4.50;1.10;;;;;;;21.50;100.00;102839.28;5018490;28;20294;-75
2023/05/31 05:52:32;;;;;;;4.38;1.00;;;;;;;21.66;100.00;102835.50;4938533;28;20113;-75
2023/05/31 05:55:00;;;;;;;2.33;0.85;;;;;;;21.74;100.00;102825.59;5016408;28;20054;-75
2023/05/31 05:57:28;;;;;;;2.58;0.70;;;;;;;22.00;100.00;102825.25;5011738;28;20053;-75
2023/05/31 06:00:10;;;;;;;3.03;1.05;;;;;;;22.33;97.97;102814.97;5005096;28;20068;-75
2023/05/31 06:02:40;;;;;;;1.98;0.88;;;;;;;22.48;95.38;102815.66;4952025;28;20057;-76
2023/05/31 06:05:08;;;;;;;4.18;0.90;;;;;;;22.54;94.75;102815.56;5012191;28;20113;-75
2023/05/31 06:07:36;;;;;;;3.78;1.00;;;;;;;22.76;92.67;102819.69;5036062;28;20046;-75
2023/05/31 06:10:04;;;;;;;3.22;0.95;;;;;;;22.60;91.51;102819.94;5025119;28;20068;-75
2023/05/31 06:12:33;;;;;;;1.98;0.70;;;;;;;22.54;91.29;102829.88;4998961;28;20511;-75
2023/05/31 06:15:00;;;;;;;5.97;0.80;;;;;;;22.47;88.77;102816.56;5021558;28;20053;-75
2023/05/31 06:17:28;;;;;;;5.15;0.60;;;;;;;22.29;89.63;102823.13;5000435;28;20062;-75
2023/05/31 06:19:55;;;;;;;3.83;0.85;;;;;;;22.03;89.33;102827.00;5021950;28;20060;-75
2023/05/31 06:22:22;;;;;;;3.83;0.70;;;;;;;21.66;90.68;102824.78;5001009;28;20057;-75
2023/05/31 06:24:50;;;;;;;2.50;0.85;;;;;;;21.37;91.85;102820.59;5014465;28;20057;-76
2023/05/31 06:27:18;;;;;;;3.05;0.90;;;;;;;21.09;93.06;102822.66;5055930;28;20521;-75
2023/05/31 06:29:46;;;;;;;1.73;0.80;;;;;;;21.01;94.11;102824.53;5003651;28;20057;-75
2023/05/31 06:32:28;;;;;;;4.22;0.70;;;;;;;21.09;92.18;102829.81;5019461;28;20068;-75
2023/05/31 06:34:57;;;;;;;3.35;0.70;;;;;;;20.99;90.58;102829.91;4974760;28;20050;-75
2023/05/31 06:37:24;;;;;;;4.03;0.95;;;;;;;20.76;90.59;102827.44;5011750;28;20057;-75
2023/05/31 06:39:53;;;;;;;3.75;0.80;;;;;;;20.40;92.16;102829.44;5024075;28;20529;-76
2023/05/31 06:42:21;;;;;;;2.55;0.90;;;;;;;20.10;93.42;102830.50;5025584;28;20049;-76
2023/05/31 06:45:09;;;;;;;4.00;1.20;;;;;;;19.74;94.79;102826.22;5003094;28;20061;-76
2023/05/31 06:48:05;;;;;;;1.60;0.93;;;;;;;19.37;97.37;102831.63;5025872;28;20045;-76
2023/05/31 06:50:51;;;;;;;2.85;0.90;;;;;;;19.07;99.06;102825.41;4998929;28;20053;-75
2023/05/31 06:53:37;;;;;;;1.05;0.80;;;;;;;18.78;100.00;102830.75;5050712;28;20061;-75
2023/05/31 06:56:16;;;;;;;5.68;1.45;;;;;;;18.62;100.00;102829.81;4981039;28;20046;-76
2023/05/31 06:58:45;;;;;;;0.82;0.80;;;;;;;18.50;100.00;102820.03;5014293;28;20057;-76
2023/05/31 07:01:13;;;;;;;6.88;1.30;;;;;;;18.39;100.00;102827.13;5006103;28;20056;-76
2023/05/31 07:03:41;;;;;;;3.38;1.02;;;;;;;18.21;100.00;102831.53;5016343;28;20068;-76
2023/05/31 07:06:08;;;;;;;4.07;1.30;;;;;;;18.15;100.00;102834.19;4972028;28;20529;-76
2023/05/31 07:08:36;;;;;;;7.40;1.08;;;;;;;18.10;100.00;102835.94;4998698;28;20057;-76
2023/05/31 07:11:23;;;;;;;6.35;1.30;;;;;;;18.00;100.00;102827.03;4999744;28;20053;-76
2023/05/31 07:13:51;;;;;;;5.40;1.50;;;;;;;17.86;100.00;102829.66;4999655;28;20061;-76
2023/05/31 07:16:19;;;;;;;6.15;1.30;;;;;;;17.79;100.00;102834.88;4997785;28;20049;-76
2023/05/31 07:18:47;;;;;;;6.47;1.65;;;;;;;17.76;100.00;102834.88;5022947;28;20073;-76
2023/05/31 07:21:16;;;;;;;3.90;1.40;;;;;;;17.72;100.00;102828.63;4965210;28;20058;-76
2023/05/31 07:23:43;;;;;;;5.00;1.20;;;;;;;17.77;100.00;102826.91;5031676;28;20053;-76
2023/05/31 07:26:11;;;;;;;7.47;1.60;;;;;;;17.69;100.00;102825.94;5025834;28;20053;-76
2023/05/31 07:28:38;;;;;;;6.32;1.40;;;;;;;17.68;100.00;102827.72;5002724;28;20045;-76
2023/05/31 07:31:05;;;;;;;3.50;1.40;;;;;;;17.73;100.00;102826.00;5011804;28;20415;-76
2023/05/31 07:33:33;;;;;;;7.20;1.50;;;;;;;17.64;100.00;102838.38;5006188;28;20064;-76
2023/05/31 07:36:00;;;;;;;5.28;1.77;;;;;;;17.59;100.00;102832.13;4981788;28;20041;-76
2023/05/31 07:38:28;;;;;;;8.77;1.50;;;;;;;17.49;100.00;102834.75;5023515;28;20068;-75
2023/05/31 07:40:56;;;;;;;8.00;2.33;;;;;;;17.45;100.00;102830.28;5006332;28;20057;-75
2023/05/31 07:43:24;;;;;;;9.50;2.08;;;;;;;17.40;100.00;102828.47;5023542;28;20049;-75
2023/05/31 07:45:54;;;;;;;8.05;1.70;;;;;;;17.36;100.00;102838.22;5015427;28;21205;-75
2023/05/31 07:48:22;;;;;;;8.10;1.95;;;;;;;17.28;100.00;102831.94;5017108;28;20060;-75
2023/05/31 07:50:50;;;;;;;8.43;2.45;;;;;;;17.24;100.00;102824.78;5022060;28;20494;-75
2023/05/31 07:53:17;;;;;;;7.47;1.80;;;;;;;17.19;100.00;102826.56;4981433;28;20085;-75
2023/05/31 07:55:45;;;;;;;9.55;2.10;;;;;;;17.22;100.00;102842.53;5007076;28;20440;-75
2023/05/31 07:58:12;;;;;;;8.05;2.33;;;;;;;17.24;100.00;102828.38;5031737;28;20049;-75
2023/05/31 08:00:39;;;;;;;10.93;2.78;;;;;;;17.15;100.00;102842.50;5010823;28;20052;-75
2023/05/31 08:03:07;;;;;;;4.57;2.00;;;;;;;16.98;100.00;102833.50;4990494;28;20068;-75
2023/05/31 08:05:35;;;;;;;11.85;2.55;;;;;;;16.83;100.00;102823.59;5012242;28;20053;-75
2023/05/31 08:08:02;;;;;;;8.27;2.42;;;;;;;16.75;100.00;102820.84;4968511;28;20054;-75
2023/05/31 08:10:30;;;;;;;7.13;2.33;;;;;;;16.72;100.00;102826.13;5030152;28;20058;-77
2023/05/31 08:12:57;;;;;;;10.63;2.60;;;;;;;16.74;100.00;102821.69;5024180;28;20045;-76
2023/05/31 08:15:25;;;;;;;12.73;2.60;;;;;;;16.68;100.00;102821.66;5007119;28;20053;-77
2023/05/31 08:17:52;;;;;;;9.57;2.80;;;;;;;16.56;100.00;102821.56;4983255;28;20049;-75
2023/05/31 08:20:20;;;;;;;8.45;2.70;;;;;;;16.49;100.00;102823.25;5007119;28;20057;-75
2023/05/31 08:22:47;;;;;;;11.23;3.05;;;;;;;16.42;100.00;102828.50;4963042;28;23081;-75
2023/05/31 08:25:16;;;;;;;11.93;3.13;;;;;;;16.42;100.00;102826.72;5015275;28;20056;-75
2023/05/31 08:27:44;;;;;;;8.75;2.95;;;;;;;16.40;100.00;102822.28;5020696;28;20045;-75
2023/05/31 08:30:12;;;;;;;15.00;3.67;;;;;;;16.40;100.00;102822.28;5010840;28;20692;-75
2023/05/31 08:32:43;;;;;;;9.73;3.38;;;;;;;16.44;100.00;102826.75;5008634;28;20045;-75
2023/05/31 08:35:10;;;;;;;12.85;3.50;;;;;;;16.56;100.00;102824.22;5023881;28;20072;-75
2023/05/31 08:37:38;;;;;;;9.00;2.85;;;;;;;16.64;100.00;102825.19;4978989;28;20049;-75
2023/05/31 08:40:06;;;;;;;10.48;3.05;;;;;;;16.53;100.00;102840.16;5001585;28;20048;-75
2023/05/31 08:42:46;;;;;;;8.50;3.20;;;;;;;16.48;100.00;102839.19;5021029;28;20049;-75
2023/05/31 08:45:13;;;;;;;9.48;3.10;;;;;;;16.48;100.00;102836.53;5011584;28;20053;-75
2023/05/31 08:47:48;;;;;;;9.40;3.42;;;;;;;16.40;100.00;102840.91;5004434;28;20049;-75
2023/05/31 08:50:17;;;;;;;7.75;3.28;;;;;;;16.39;100.00;102837.34;5023201;28;20053;-75
2023/05/31 08:52:46;;;;;;;6.78;2.70;;;;;;;16.41;100.00;102840.91;5020007;28;20046;-75
2023/05/31 08:55:14;;;;;;;8.10;2.88;;;;;;;16.41;100.00;102843.56;4985177;28;20053;-75
2023/05/31 08:57:42;;;;;;;6.15;3.10;;;;;;;16.36;100.00;102837.31;4987685;28;20041;-75
2023/05/31 09:00:10;;;;;;;8.65;2.55;;;;;;;16.21;100.00;102845.13;5022933;28;20049;-75
2023/05/31 09:02:39;;;;;;;5.97;3.20;;;;;;;16.05;100.00;102844.03;5004666;28;20045;-75
2023/05/31 09:05:10;;;;;;;9.52;3.10;;;;;;;16.04;100.00;102853.78;5016324;28;20064;-75
2023/05/31 09:07:38;;;;;;;12.40;3.30;;;;;;;16.13;100.00;102840.59;4988898;28;20038;-75
2023/05/31 09:10:08;;;;;;;8.80;3.20;;;;;;;16.18;100.00;102843.28;4962270;28;20495;-75
2023/05/31 09:12:36;;;;;;;9.00;3.10;;;;;;;16.09;100.00;102846.75;5006985;28;20057;-75
2023/05/31 09:15:05;;;;;;;7.20;3.00;;;;;;;15.88;100.00;102850.03;5039126;28;20072;-75
2023/05/31 09:17:33;;;;;;;5.57;2.40;;;;;;;15.70;100.00;102841.78;5015786;28;20046;-75
2023/05/31 09:20:00;;;;;;;4.40;2.80;;;;;;;15.53;100.00;102844.19;4982015;28;20050;-75
2023/05/31 09:22:28;;;;;;;9.20;3.42;;;;;;;15.50;100.00;102849.47;5005242;28;20057;-75
2023/05/31 09:24:57;;;;;;;4.65;3.00;;;;;;;15.52;100.00;102838.00;4975387;28;20128;-75
2023/05/31 09:27:27;;;;;;;7.18;3.22;;;;;;;15.54;100.00;102838.03;5037817;28;20060;-75
2023/05/31 09:29:54;;;;;;;5.72;2.42;;;;;;;15.55;100.00;102832.72;5054290;28;20494;-75
2023/05/31 09:32:22;;;;;;;3.45;2.35;;;;;;;15.48;100.00;102828.22;5022537;28;20056;-76
2023/05/31 09:34:49;;;;;;;8.68;2.72;;;;;;;15.48;100.00;102827.28;5011831;28;20076;-75
2023/05/31 09:37:22;;;;;;;4.43;2.05;;;;;;;15.51;100.00;102836.19;5013620;28;20041;-75
2023/05/31 09:39:54;;;;;;;8.30;2.28;;;;;;;15.54;100.00;102828.28;5019664;28;20418;-76
2023/05/31 09:42:24;;;;;;;5.68;2.55;;;;;;;15.54;100.00;102819.44;4963741;28;20053;-75
2023/05/31 09:44:51;;;;;;;7.88;3.40;;;;;;;15.55;100.00;102822.09;5037693;28;20049;-75
2023/05/31 09:47:25;;;;;;;7.28;2.65;;;;;;;15.46;100.00;102813.97;5036195;28;20044;-75
2023/05/31 09:49:56;;;;;;;7.35;2.90;;;;;;;15.53;100.00;102817.63;5038375;28;20517;-76
2023/05/31 09:52:27;;;;;;;5.95;2.72;;;;;;;15.54;100.00;102825.63;5012102;28;20050;-76
2023/05/31 09:54:56;;;;;;;9.30;2.60;;;;;;;15.53;100.00;102815.84;5023047;28;20410;-76
2023/05/31 09:57:40;;;;;;;8.43;2.40;;;;;;;15.54;100.00;102811.47;4973905;28;20041;-77
2023/05/31 10:00:14;;;;;;;6.30;2.20;;;;;;;15.52;100.00;102830.03;5051900;28;20060;-76
2023/05/31 10:02:50;;;;;;;8.35;2.45;;;;;;;15.40;100.00;102825.41;5037056;28;20049;-75
2023/05/31 10:05:18;;;;;;;5.53;2.60;;;;;;;15.39;100.00;102815.66;5016866;28;20046;-75
2023/05/31 10:07:48;;;;;;;6.45;2.10;;;;;;;15.39;100.00;102826.31;5047393;28;20037;-75
2023/05/31 10:10:20;;;;;;;5.53;2.20;;;;;;;15.36;100.00;102820.94;5022163;28;20057;-77
2023/05/31 10:12:57;;;;;;;4.80;1.92;;;;;;;15.39;100.00;102825.41;4987230;28;20053;-75
2023/05/31 10:15:26;;;;;;;5.15;2.10;;;;;;;15.39;100.00;102806.81;4996577;28;20054;-75
2023/05/31 10:18:02;;;;;;;9.00;2.47;;;;;;;15.51;100.00;102814.94;5022554;28;20052;-76
2023/05/31 10:20:47;;;;;;;8.43;2.67;;;;;;;15.68;100.00;102812.53;5027435;28;20075;-77
2023/05/31 10:23:41;;;;;;;6.47;2.00;;;;;;;15.64;100.00;102807.16;5014308;28;20049;-77
2023/05/31 10:26:15;;;;;;;8.60;2.10;;;;;;;15.63;100.00;102808.00;5050526;28;20061;-76
2023/05/31 10:29:03;;;;;;;8.88;2.28;;;;;;;15.67;100.00;102807.19;4963850;28;20046;-76
2023/05/31 10:31:38;;;;;;;7.88;2.45;;;;;;;15.66;100.00;102803.63;5017528;28;20045;-76
2023/05/31 10:34:32;;;;;;;9.32;2.28;;;;;;;15.74;100.00;102803.78;5042597;28;20084;-76
2023/05/31 10:36:59;;;;;;;5.38;1.90;;;;;;;15.85;100.00;102785.31;5013536;28;20486;-77
2023/05/31 10:39:29;;;;;;;6.47;1.92;;;;;;;15.85;100.00;102801.25;5008621;28;20050;-77
2023/05/31 10:42:36;;;;;;;7.97;2.00;;;;;;;15.84;100.00;102802.13;5030672;28;20059;-77
2023/05/31 10:45:18;;;;;;;5.43;2.50;;;;;;;15.95;100.00;102795.16;4977270;28;20053;-77
2023/05/31 10:47:54;;;;;;;6.30;2.63;;;;;;;16.04;100.00;102787.28;5009221;28;20092;-77
2023/05/31 10:50:23;;;;;;;6.07;2.13;;;;;;;16.17;100.00;102793.66;5001146;28;20507;-77
2023/05/31 10:52:51;;;;;;;9.77;2.30;;;;;;;16.21;100.00;102797.25;5016582;28;20041;-77
2023/05/31 10:55:21;;;;;;;9.23;2.40;;;;;;;16.29;100.00;102791.09;5038371;28;20056;-78
2023/05/31 10:57:57;;;;;;;7.15;2.80;;;;;;;16.30;100.00;102789.34;5004268;28;20045;-77
2023/05/31 11:00:25;;;;;;;6.13;2.40;;;;;;;16.33;100.00;102787.63;4967818;28;20054;-77
2023/05/31 11:02:58;;;;;;;6.93;2.50;;;;;;;16.33;100.00;102784.97;5036347;28;20076;-77
2023/05/31 11:05:27;;;;;;;6.28;2.70;;;;;;;16.35;100.00;102782.28;5022546;28;20052;-77
2023/05/31 11:07:55;;;;;;;9.25;2.60;;;;;;;16.36;100.00;102794.75;5010843;28;20046;-77
2023/05/31 11:10:28;;;;;;;6.93;2.45;;;;;;;16.44;100.00;102784.16;5024112;28;20060;-77
2023/05/31 11:12:57;;;;;;;7.30;2.65;;;;;;;16.53;100.00;102768.28;5009370;28;20048;-77
2023/05/31 11:15:39;;;;;;;6.70;2.35;;;;;;;16.59;100.00;102778.09;4969141;28;20041;-77
2023/05/31 11:18:23;;;;;;;4.65;2.47;;;;;;;16.62;100.00;102768.38;5014247;28;20053;-77
2023/05/31 11:20:50;;;;;;;4.15;2.38;;;;;;;16.64;100.00;102771.94;5009690;28;20048;-77
2023/05/31 11:23:28;;;;;;;7.15;2.55;;;;;;;16.62;100.00;102773.69;4992086;28;20525;-77
2023/05/31 11:26:07;;;;;;;7.63;2.33;;;;;;;16.71;100.00;102780.84;5026094;28;20045;-77
2023/05/31 11:28:51;;;;;;;8.95;3.03;;;;;;;16.64;100.00;102774.59;5023595;28;20045;-77
2023/05/31 11:31:50;;;;;;;7.00;1.90;;;;;;;16.62;100.00;102767.50;4978830;28;20058;-77
2023/05/31 11:34:25;;;;;;;7.13;2.38;;;;;;;16.68;100.00;102765.75;5018130;28;20407;-77
2023/05/31 11:36:52;;;;;;;5.40;2.65;;;;;;;16.85;100.00;102765.94;5027772;28;20053;-77